Time;durP1;ratioP1;P1;durP2;ratioP2;P2;SDS_P1;SDS_P2;PMS_P1;PMS_P2;Temp;Humidity;BMP_temperature;BMP_pressure;BME280_temperature;BME280_humidity;BME280_pressure;Samples;Min_cycle;Max_cycle;Signal;HPM_P1;HPM_P2
2022/10/15 00:00:26;;;;;;;55.88;30.83;;;;;;;12.32;100.00;100809.34;5028723;28;20028;-65
2022/10/15 00:02:52;;;;;;;59.90;32.20;;;;;;;12.30;100.00;100812.03;5047632;28;20029;-65
2022/10/15 00:05:17;;;;;;;60.13;31.17;;;;;;;12.31;100.00;100808.47;5053092;28;20036;-64
2022/10/15 00:07:43;;;;;;;56.90;30.92;;;;;;;12.30;100.00;100801.47;5046794;28;20067;-64
2022/10/15 00:10:08;;;;;;;57.20;32.22;;;;;;;12.32;100.00;100810.22;5058066;28;20050;-64
2022/10/15 00:12:34;;;;;;;52.28;32.42;;;;;;;12.33;100.00;100804.00;5027181;28;20664;-66
2022/10/15 00:14:59;;;;;;;59.03;32.85;;;;;;;12.39;100.00;100805.50;5027062;28;20029;-64
2022/10/15 00:17:25;;;;;;;61.08;33.15;;;;;;;12.35;100.00;100801.28;5027232;28;20074;-64
2022/10/15 00:19:50;;;;;;;55.42;33.08;;;;;;;12.37;100.00;100802.94;5027182;28;20031;-67
2022/10/15 00:22:15;;;;;;;54.90;31.02;;;;;;;12.41;100.00;100797.53;5027319;28;20025;-65
2022/10/15 00:24:41;;;;;;;54.35;31.00;;;;;;;12.42;100.00;100796.59;5027160;28;20030;-65
2022/10/15 00:27:06;;;;;;;61.92;34.13;;;;;;;12.47;100.00;100802.56;5026847;28;20475;-65
2022/10/15 00:29:31;;;;;;;62.08;33.53;;;;;;;12.47;100.00;100797.25;5026506;28;20029;-64
2022/10/15 00:31:57;;;;;;;59.15;33.38;;;;;;;12.49;100.00;100796.28;5026554;28;20022;-65
2022/10/15 00:34:22;;;;;;;60.65;33.33;;;;;;;12.51;100.00;100802.34;5032066;28;20486;-64
2022/10/15 00:36:49;;;;;;;62.58;33.25;;;;;;;12.50;100.00;100797.97;5024804;28;20392;-64
2022/10/15 00:39:15;;;;;;;56.47;31.70;;;;;;;12.59;100.00;100793.25;5026336;28;20435;-65
2022/10/15 00:41:42;;;;;;;54.60;31.27;;;;;;;12.60;100.00;100787.88;5026886;28;20036;-64
2022/10/15 00:44:27;;;;;;;61.30;33.08;;;;;;;12.62;100.00;100793.94;5026479;28;20040;-65
2022/10/15 00:47:02;;;;;;;54.58;31.40;;;;;;;12.60;100.00;100793.16;5027040;28;20644;-65
2022/10/15 00:49:34;;;;;;;53.95;31.95;;;;;;;12.64;100.00;100784.19;5025828;28;21095;-64
2022/10/15 00:52:09;;;;;;;55.10;30.67;;;;;;;12.65;100.00;100779.75;5026224;28;20025;-66
2022/10/15 00:54:55;;;;;;;60.70;34.47;;;;;;;12.68;100.00;100786.69;5009578;28;20025;-65
2022/10/15 00:57:20;;;;;;;54.95;30.58;;;;;;;12.73;100.00;100784.69;5026010;28;20427;-65
2022/10/15 00:59:48;;;;;;;60.05;33.72;;;;;;;12.72;100.00;100780.34;5026123;28;20028;-64
2022/10/15 01:02:14;;;;;;;57.30;32.63;;;;;;;12.76;100.00;100780.13;5027910;28;20025;-64
2022/10/15 01:04:41;;;;;;;57.70;33.63;;;;;;;12.77;100.00;100775.72;5029643;28;20029;-64
2022/10/15 01:07:07;;;;;;;61.60;34.13;;;;;;;12.76;100.00;100781.91;5025335;28;20136;-65
2022/10/15 01:09:32;;;;;;;66.18;35.20;;;;;;;12.72;100.00;100786.50;5039580;28;20071;-65
2022/10/15 01:11:58;;;;;;;66.65;34.88;;;;;;;12.76;100.00;100776.63;5048547;28;20021;-65
2022/10/15 01:14:37;;;;;;;63.95;34.67;;;;;;;12.75;100.00;100775.78;5049490;28;20021;-65
2022/10/15 01:17:14;;;;;;;;;;;;;;;12.78;100.00;100772.13;5051032;28;20035;-65
2022/10/15 01:20:10;;;;;;;59.40;34.83;;;;;;;12.80;100.00;100772.94;5049950;28;20390;-65
2022/10/15 01:23:03;;;;;;;57.90;35.03;;;;;;;12.76;100.00;100766.91;5050497;28;20063;-64
2022/10/15 01:25:53;;;;;;;52.97;31.80;;;;;;;12.75;100.00;100759.91;5050351;28;20111;-65
2022/10/15 01:28:39;;;;;;;52.75;32.33;;;;;;;12.68;100.00;100763.75;5050240;28;20021;-65
2022/10/15 01:31:49;;;;;;;54.15;32.90;;;;;;;12.57;100.00;100755.44;5051981;28;20082;-65
2022/10/15 01:34:32;;;;;;;55.67;33.53;;;;;;;12.49;100.00;100750.47;4968108;28;20519;-65
2022/10/15 01:37:23;;;;;;;62.38;34.90;;;;;;;12.41;100.00;100753.47;4967144;28;20035;-64
2022/10/15 01:39:58;;;;;;;59.97;34.78;;;;;;;12.37;100.00;100751.84;5032531;28;20493;-64
2022/10/15 01:42:27;;;;;;;60.67;34.40;;;;;;;12.28;100.00;100753.13;5049566;28;20120;-64
2022/10/15 01:44:59;;;;;;;59.13;33.75;;;;;;;12.20;100.00;100747.31;5048866;28;20056;-65
2022/10/15 01:47:50;;;;;;;64.32;37.00;;;;;;;12.12;100.00;100745.00;5031606;28;20056;-65
2022/10/15 01:50:18;;;;;;;65.25;35.08;;;;;;;12.03;100.00;100745.34;5021320;28;20052;-65
2022/10/15 01:52:44;;;;;;;68.63;35.28;;;;;;;12.01;100.00;100743.63;5031749;28;20539;-64
2022/10/15 01:55:11;;;;;;;67.75;38.53;;;;;;;11.98;100.00;100738.47;5049379;28;20028;-64
2022/10/15 01:57:38;;;;;;;64.60;37.13;;;;;;;11.99;100.00;100737.56;5031741;28;20071;-64
2022/10/15 02:00:04;;;;;;;72.20;38.72;;;;;;;11.99;100.00;100739.34;5034342;28;20078;-66
2022/10/15 02:02:29;;;;;;;68.72;38.38;;;;;;;11.99;100.00;100734.94;5055593;28;20021;-64
2022/10/15 02:04:55;;;;;;;68.97;37.72;;;;;;;11.99;100.00;100732.28;5048404;28;20502;-65
2022/10/15 02:07:32;;;;;;;72.07;38.25;;;;;;;11.93;100.00;100731.66;5048119;28;20074;-65
2022/10/15 02:10:18;;;;;;;65.13;36.15;;;;;;;11.84;100.00;100720.56;5031291;28;20052;-65
2022/10/15 02:12:51;;;;;;;63.85;36.30;;;;;;;11.78;100.00;100723.47;5031313;28;20467;-65
2022/10/15 02:15:24;;;;;;;72.00;38.22;;;;;;;11.75;100.00;100713.03;5030178;28;20021;-64
2022/10/15 02:18:02;;;;;;;80.07;41.85;;;;;;;11.74;100.00;100711.31;5048922;28;20032;-64
2022/10/15 02:20:31;;;;;;;78.18;40.40;;;;;;;11.72;100.00;100714.03;5051435;28;20032;-65
2022/10/15 02:23:01;;;;;;;;;;;;;;;11.71;100.00;100703.53;5035048;28;20029;-65
2022/10/15 02:25:27;;;;;;;79.57;39.42;;;;;;;11.65;100.00;100703.75;5029631;28;20387;-65
2022/10/15 02:27:54;;;;;;;75.65;40.65;;;;;;;11.61;100.00;100695.97;5048147;28;20032;-64
2022/10/15 02:30:19;;;;;;;83.28;41.50;;;;;;;11.60;100.00;100702.19;5030764;28;20490;-66
2022/10/15 02:32:48;;;;;;;72.28;40.03;;;;;;;11.60;100.00;100694.25;5015142;28;20112;-63
2022/10/15 02:35:14;;;;;;;84.13;42.97;;;;;;;11.60;100.00;100694.25;5048946;28;20559;-64
2022/10/15 02:37:43;;;;;;;83.90;44.67;;;;;;;11.60;100.00;100686.34;5031013;28;20111;-65
2022/10/15 02:40:09;;;;;;;89.15;42.97;;;;;;;11.60;100.00;100681.06;5031309;28;20016;-64
2022/10/15 02:42:34;;;;;;;87.22;45.78;;;;;;;11.63;100.00;100675.63;5040649;28;20053;-65
2022/10/15 02:45:00;;;;;;;85.32;43.65;;;;;;;11.64;100.00;100681.78;5030166;28;20016;-65
2022/10/15 02:47:25;;;;;;;101.78;48.40;;;;;;;11.63;100.00;100675.63;5048558;28;20036;-65
2022/10/15 02:49:51;;;;;;;99.93;47.17;;;;;;;11.63;100.00;100673.00;5046509;28;20127;-65
2022/10/15 02:52:16;;;;;;;88.22;44.20;;;;;;;11.61;100.00;100674.84;5065626;28;20025;-66
2022/10/15 02:54:41;;;;;;;82.25;42.13;;;;;;;11.59;100.00;100679.31;5067745;28;20032;-65
2022/10/15 02:57:07;;;;;;;84.97;44.83;;;;;;;11.53;100.00;100676.94;5067324;28;20232;-65
2022/10/15 02:59:32;;;;;;;90.82;46.80;;;;;;;11.48;100.00;100668.34;5067996;28;20070;-66
2022/10/15 03:01:57;;;;;;;84.00;43.58;;;;;;;11.40;100.00;100663.38;5064084;28;20037;-65
2022/10/15 03:04:23;;;;;;;83.50;38.90;;;;;;;11.33;100.00;100665.44;5067386;28;20031;-66
2022/10/15 03:06:48;;;;;;;73.50;37.72;;;;;;;11.28;100.00;100669.16;5067336;28;20433;-65
2022/10/15 03:09:13;;;;;;;74.60;38.70;;;;;;;11.23;100.00;100664.91;5067822;28;20052;-65
2022/10/15 03:11:39;;;;;;;89.78;44.90;;;;;;;11.23;100.00;100661.44;5068592;28;20025;-65
2022/10/15 03:14:04;;;;;;;90.80;43.72;;;;;;;11.16;100.00;100666.06;5067619;28;20113;-67
2022/10/15 03:16:29;;;;;;;82.97;41.97;;;;;;;11.12;100.00;100660.09;5068858;28;20502;-66
2022/10/15 03:18:55;;;;;;;94.40;44.95;;;;;;;11.12;100.00;100665.34;5068437;28;20483;-64
2022/10/15 03:21:20;;;;;;;89.82;43.45;;;;;;;11.09;100.00;100660.19;5067646;28;20593;-65
2022/10/15 03:23:45;;;;;;;82.68;41.92;;;;;;;11.07;100.00;100669.94;5062933;28;20025;-65
2022/10/15 03:26:11;;;;;;;84.05;41.45;;;;;;;11.03;100.00;100659.56;5067467;28;20058;-65
2022/10/15 03:28:36;;;;;;;93.03;43.78;;;;;;;11.01;100.00;100664.06;5066777;28;20107;-66
2022/10/15 03:31:01;;;;;;;90.10;42.40;;;;;;;10.98;100.00;100667.66;5068363;28;20020;-64
2022/10/15 03:33:27;;;;;;;86.70;42.17;;;;;;;10.94;100.00;100656.38;5067364;28;20032;-65
2022/10/15 03:35:52;;;;;;;92.18;44.05;;;;;;;10.93;100.00;100659.91;5067409;28;20027;-64
2022/10/15 03:38:18;;;;;;;91.82;43.88;;;;;;;10.95;100.00;100657.22;5067826;28;20028;-64
2022/10/15 03:40:44;;;;;;;89.55;44.33;;;;;;;10.91;100.00;100660.91;5067739;28;20368;-65
2022/10/15 03:43:09;;;;;;;83.70;39.10;;;;;;;10.83;100.00;100654.16;5067609;28;20027;-65
2022/10/15 03:45:35;;;;;;;80.35;40.53;;;;;;;10.81;100.00;100658.59;5066740;28;20025;-65
2022/10/15 03:48:00;;;;;;;84.55;38.45;;;;;;;10.76;100.00;100660.56;5064611;28;20020;-65
2022/10/15 03:50:25;;;;;;;84.10;40.88;;;;;;;10.72;100.00;100649.28;5066844;28;20028;-65
2022/10/15 03:52:51;;;;;;;92.07;42.35;;;;;;;10.71;100.00;100660.75;5066541;28;20036;-65
2022/10/15 03:55:16;;;;;;;91.97;43.92;;;;;;;10.69;100.00;100664.34;5052628;28;20040;-66
2022/10/15 03:57:42;;;;;;;84.80;44.45;;;;;;;10.70;100.00;100669.56;5029367;28;20064;-65
2022/10/15 04:00:08;;;;;;;95.70;45.17;;;;;;;10.70;100.00;100671.34;5046032;28;20117;-65
2022/10/15 04:02:33;;;;;;;97.18;45.53;;;;;;;10.72;100.00;100673.00;5047743;28;20032;-64
2022/10/15 04:04:58;;;;;;;100.63;45.97;;;;;;;10.78;100.00;100679.84;5035611;28;20028;-65
2022/10/15 04:07:24;;;;;;;111.18;48.70;;;;;;;10.83;100.00;100674.34;5058537;28;20032;-66
2022/10/15 04:09:49;;;;;;;116.57;52.10;;;;;;;10.86;100.00;100677.75;5048544;28;20041;-66
2022/10/15 04:12:15;;;;;;;113.90;50.80;;;;;;;10.95;100.00;100683.56;5046532;28;20037;-64
2022/10/15 04:14:40;;;;;;;111.60;52.38;;;;;;;11.08;100.00;100684.00;5046318;28;20099;-66
2022/10/15 04:17:06;;;;;;;128.63;56.67;;;;;;;11.25;100.00;100685.94;5046953;28;20049;-65
2022/10/15 04:19:32;;;;;;;121.85;54.40;;;;;;;11.41;100.00;100674.81;5047299;28;20379;-65
2022/10/15 04:21:57;;;;;;;146.38;62.70;;;;;;;11.54;100.00;100675.16;5046440;28;20613;-64
2022/10/15 04:24:22;;;;;;;127.00;59.05;;;;;;;11.65;100.00;100674.72;5046718;28;20151;-64
2022/10/15 04:26:48;;;;;;;129.60;60.75;;;;;;;11.72;100.00;100678.84;5028295;28;20036;-65
2022/10/15 04:29:13;;;;;;;124.15;57.85;;;;;;;11.78;100.00;100675.94;5027943;28;20028;-64
2022/10/15 04:31:39;;;;;;;113.00;55.72;;;;;;;11.86;100.00;100670.34;5028850;28;20124;-64
2022/10/15 04:34:06;;;;;;;115.75;56.42;;;;;;;11.95;100.00;100666.47;5028572;28;20029;-65
2022/10/15 04:36:31;;;;;;;119.45;56.92;;;;;;;11.98;100.00;100663.69;5029294;28;20053;-65
2022/10/15 04:38:57;;;;;;;116.95;56.65;;;;;;;12.03;100.00;100659.06;5046334;28;20035;-66
2022/10/15 04:41:22;;;;;;;114.97;55.88;;;;;;;12.05;100.00;100654.56;5046249;28;20067;-65
2022/10/15 04:43:48;;;;;;;112.43;55.55;;;;;;;12.00;100.00;100657.41;5045806;28;20115;-64
2022/10/15 04:46:13;;;;;;;113.53;56.53;;;;;;;11.97;100.00;100652.25;5047260;28;20419;-67
2022/10/15 04:48:38;;;;;;;114.97;54.90;;;;;;;11.95;100.00;100659.38;5032770;28;20378;-64
2022/10/15 04:51:05;;;;;;;118.07;57.92;;;;;;;12.01;100.00;100658.25;5050472;28;20032;-64
2022/10/15 04:53:30;;;;;;;116.60;57.38;;;;;;;12.03;100.00;100659.06;5051014;28;20087;-64
2022/10/15 04:56:00;;;;;;;107.70;53.20;;;;;;;12.05;100.00;100654.56;5050317;28;20037;-65
2022/10/15 04:58:27;;;;;;;111.78;55.20;;;;;;;12.10;100.00;100663.19;5049512;28;20036;-65
2022/10/15 05:00:52;;;;;;;117.07;57.33;;;;;;;12.13;100.00;100663.03;5050332;28;20021;-65
2022/10/15 05:03:18;;;;;;;113.82;56.00;;;;;;;12.18;100.00;100654.06;5049706;28;20158;-67
2022/10/15 05:05:43;;;;;;;117.93;56.10;;;;;;;12.19;100.00;100654.00;5050420;28;20040;-66
2022/10/15 05:08:08;;;;;;;115.70;56.40;;;;;;;12.21;100.00;100653.91;5049780;28;20029;-65
2022/10/15 05:10:34;;;;;;;117.82;54.00;;;;;;;12.23;100.00;100650.31;5050519;28;20036;-65
2022/10/15 05:12:59;;;;;;;114.50;55.35;;;;;;;12.23;100.00;100658.25;5049242;28;20025;-66
2022/10/15 05:15:26;;;;;;;119.32;55.63;;;;;;;12.25;100.00;100653.72;5049860;28;20479;-65
2022/10/15 05:17:51;;;;;;;120.50;54.20;;;;;;;12.29;100.00;100651.81;5050598;28;20032;-65
2022/10/15 05:20:16;;;;;;;117.90;55.15;;;;;;;12.29;100.00;100650.94;5058467;28;20438;-65
2022/10/15 05:22:42;;;;;;;118.55;54.63;;;;;;;12.30;100.00;100650.88;5070027;28;20095;-63
2022/10/15 05:25:07;;;;;;;123.50;53.50;;;;;;;12.28;100.00;100644.81;5068872;28;20064;-65
2022/10/15 05:27:33;;;;;;;120.07;54.55;;;;;;;12.28;100.00;100644.81;5054097;28;20021;-65
2022/10/15 05:29:58;;;;;;;116.22;50.35;;;;;;;12.27;100.00;100643.09;5049321;28;20100;-65
2022/10/15 05:32:23;;;;;;;119.47;50.53;;;;;;;12.23;100.00;100638.88;5049887;28;20028;-64
2022/10/15 05:34:49;;;;;;;111.28;48.45;;;;;;;12.23;100.00;100633.59;5050005;28;20414;-64
2022/10/15 05:37:14;;;;;;;115.70;50.53;;;;;;;12.20;100.00;100637.25;5049930;28;20036;-64
2022/10/15 05:39:39;;;;;;;119.70;49.05;;;;;;;12.20;100.00;100628.44;5032431;28;20028;-65
2022/10/15 05:42:05;;;;;;;116.15;50.80;;;;;;;12.20;100.00;100629.31;5031975;28;20025;-66
2022/10/15 05:44:30;;;;;;;127.85;50.35;;;;;;;12.16;100.00;100627.72;5014838;28;20021;-64
2022/10/15 05:46:55;;;;;;;108.20;48.05;;;;;;;12.17;100.00;100632.09;5064668;28;20048;-64
2022/10/15 05:49:21;;;;;;;112.45;46.58;;;;;;;12.13;100.00;100628.72;5068814;28;20033;-65
2022/10/15 05:51:46;;;;;;;105.18;45.20;;;;;;;12.15;100.00;100627.78;5050782;28;20098;-65
2022/10/15 05:54:11;;;;;;;104.85;45.72;;;;;;;12.11;100.00;100625.28;5069661;28;20024;-65
2022/10/15 05:56:37;;;;;;;104.13;44.72;;;;;;;12.07;100.00;100631.63;5068971;28;20517;-67
2022/10/15 05:59:03;;;;;;;108.15;45.35;;;;;;;11.98;100.00;100637.28;5069278;28;20024;-64
2022/10/15 06:01:29;;;;;;;110.40;44.20;;;;;;;12.04;100.00;100639.63;5051843;28;20038;-64
2022/10/15 06:03:54;;;;;;;113.47;46.17;;;;;;;12.04;100.00;100650.19;5066006;28;20033;-65
2022/10/15 06:06:21;;;;;;;110.88;48.13;;;;;;;12.15;100.00;100641.84;5068588;28;20062;-66
2022/10/15 06:08:47;;;;;;;111.30;45.78;;;;;;;12.20;100.00;100636.38;5047631;28;20404;-67
2022/10/15 06:11:13;;;;;;;104.22;43.50;;;;;;;12.28;100.00;100639.50;5047842;28;20021;-65
2022/10/15 06:13:40;;;;;;;105.38;43.88;;;;;;;12.29;100.00;100640.38;5048179;28;20096;-66
2022/10/15 06:16:05;;;;;;;93.25;41.83;;;;;;;12.26;100.00;100636.94;5040549;28;20032;-67
2022/10/15 06:18:31;;;;;;;96.07;42.80;;;;;;;12.27;100.00;100632.53;5069564;28;20054;-64
2022/10/15 06:20:56;;;;;;;83.22;39.00;;;;;;;12.28;100.00;100626.31;5066845;28;20024;-64
2022/10/15 06:23:23;;;;;;;86.50;38.83;;;;;;;12.28;100.00;100634.22;5067252;28;20489;-63
2022/10/15 06:25:48;;;;;;;84.65;38.58;;;;;;;12.26;100.00;100630.81;5047299;28;20107;-65
2022/10/15 06:28:14;;;;;;;88.15;37.72;;;;;;;12.28;100.00;100628.13;5046676;28;20111;-63
2022/10/15 06:30:39;;;;;;;78.28;35.53;;;;;;;12.30;100.00;100615.66;5047561;28;20112;-65
2022/10/15 06:33:04;;;;;;;79.75;36.08;;;;;;;12.36;100.00;100626.84;5047102;28;20376;-64
2022/10/15 06:35:32;;;;;;;87.72;37.55;;;;;;;12.33;100.00;100619.03;5052729;28;20402;-64
2022/10/15 06:37:59;;;;;;;77.75;35.42;;;;;;;12.37;100.00;100625.03;5042233;28;20021;-65
2022/10/15 06:40:24;;;;;;;84.80;35.50;;;;;;;12.34;100.00;100628.69;5045458;28;20033;-65
2022/10/15 06:42:50;;;;;;;82.53;34.85;;;;;;;12.36;100.00;100637.41;5045540;28;20499;-64
2022/10/15 06:45:15;;;;;;;83.30;34.53;;;;;;;12.45;100.00;100633.50;5045833;28;20025;-64
2022/10/15 06:47:41;;;;;;;89.18;35.08;;;;;;;12.54;100.00;100640.13;5046211;28;20031;-64
2022/10/15 06:50:06;;;;;;;84.80;35.67;;;;;;;12.58;100.00;100640.88;5046439;28;20040;-65
2022/10/15 06:52:32;;;;;;;84.95;35.58;;;;;;;12.63;100.00;100637.09;5047909;28;20050;-64
2022/10/15 06:54:57;;;;;;;87.93;35.75;;;;;;;12.71;100.00;100634.09;5046989;28;20021;-64
2022/10/15 06:57:24;;;;;;;97.55;38.08;;;;;;;12.76;100.00;100633.84;5046347;28;20448;-65
2022/10/15 06:59:50;;;;;;;103.57;41.08;;;;;;;12.82;100.00;100636.22;5045872;28;20107;-64
2022/10/15 07:02:18;;;;;;;103.68;40.45;;;;;;;12.89;100.00;100639.44;5029619;28;20162;-64
2022/10/15 07:04:43;;;;;;;104.45;41.38;;;;;;;12.94;100.00;100631.31;5059180;28;20029;-64
2022/10/15 07:07:09;;;;;;;113.97;43.85;;;;;;;13.03;100.00;100633.50;5045307;28;20372;-64
2022/10/15 07:09:35;;;;;;;112.05;43.30;;;;;;;12.98;100.00;100640.81;5045405;28;20391;-65
2022/10/15 07:12:00;;;;;;;109.82;43.70;;;;;;;13.09;100.00;100642.91;5028903;28;20463;-66
2022/10/15 07:14:26;;;;;;;106.32;44.38;;;;;;;13.19;100.00;100638.94;5027921;28;20046;-63
2022/10/15 07:16:51;;;;;;;105.78;45.63;;;;;;;13.22;100.00;100649.34;5046160;28;20118;-65
2022/10/15 07:19:16;;;;;;;100.25;44.38;;;;;;;13.26;100.00;100648.28;5046996;28;20045;-63
2022/10/15 07:21:42;;;;;;;93.35;41.20;;;;;;;13.31;100.00;100633.97;5047114;28;20029;-64
2022/10/15 07:24:07;;;;;;;86.50;41.63;;;;;;;13.37;100.00;100631.84;5047029;28;20033;-64
2022/10/15 07:26:32;;;;;;;73.90;38.30;;;;;;;13.33;100.00;100632.09;5047310;28;20472;-65
2022/10/15 07:28:58;;;;;;;72.82;38.42;;;;;;;13.28;100.00;100627.03;5046438;28;20087;-64
2022/10/15 07:31:23;;;;;;;75.95;37.60;;;;;;;13.31;100.00;100615.44;5033423;28;21078;-64
2022/10/15 07:33:48;;;;;;;85.78;41.45;;;;;;;13.30;100.00;100616.38;5066770;28;20032;-65
2022/10/15 07:36:14;;;;;;;87.18;41.28;;;;;;;13.31;100.00;100611.00;5065305;28;20020;-65
2022/10/15 07:38:39;;;;;;;112.97;48.42;;;;;;;13.23;100.00;100613.16;5048640;28;20028;-65
2022/10/15 07:41:06;;;;;;;107.43;45.95;;;;;;;13.29;100.00;100607.56;5066635;28;20090;-65
2022/10/15 07:43:33;;;;;;;110.15;47.17;;;;;;;13.30;100.00;100614.56;5056067;28;20131;-64
2022/10/15 07:45:58;;;;;;;112.70;48.75;;;;;;;13.35;100.00;100612.56;5045829;28;20064;-65
2022/10/15 07:48:24;;;;;;;117.93;48.80;;;;;;;13.32;100.00;100618.00;5045144;28;20223;-66
2022/10/15 07:50:56;;;;;;;111.82;48.67;;;;;;;13.30;100.00;100625.16;5046171;28;20040;-65
2022/10/15 07:53:22;;;;;;;106.75;47.20;;;;;;;13.22;100.00;100624.69;5058102;28;20490;-64
2022/10/15 07:55:47;;;;;;;111.35;46.75;;;;;;;13.23;100.00;100621.97;5044781;28;20364;-66
2022/10/15 07:58:12;;;;;;;106.22;47.22;;;;;;;13.40;100.00;100618.47;5045199;28;20067;-66
2022/10/15 08:00:38;;;;;;;93.85;44.60;;;;;;;13.55;100.00;100617.81;5024131;28;20094;-64
2022/10/15 08:03:03;;;;;;;78.70;39.38;;;;;;;13.65;100.00;100605.84;5046444;28;20069;-64
2022/10/15 08:05:28;;;;;;;75.30;37.72;;;;;;;13.78;100.00;100600.78;5051279;28;20033;-64
2022/10/15 08:07:54;;;;;;;63.88;35.45;;;;;;;13.95;100.00;100597.25;5026886;28;20124;-64
2022/10/15 08:10:19;;;;;;;65.47;33.88;;;;;;;14.07;100.00;100597.53;5045863;28;20116;-65
2022/10/15 08:12:45;;;;;;;51.40;29.80;;;;;;;14.09;100.00;100591.22;5056801;28;20039;-64
2022/10/15 08:15:10;;;;;;;50.60;30.02;;;;;;;14.21;100.00;100589.72;5049464;28;20490;-65
2022/10/15 08:17:36;;;;;;;46.95;26.98;;;;;;;14.35;100.00;100585.47;5045163;28;20025;-65
2022/10/15 08:20:01;;;;;;;38.50;25.35;;;;;;;14.51;100.00;100585.50;5046868;28;20484;-64
2022/10/15 08:22:26;;;;;;;35.53;23.92;;;;;;;14.73;100.00;100581.66;5046111;28;20507;-64
2022/10/15 08:24:52;;;;;;;36.10;24.90;;;;;;;14.73;100.00;100586.97;5046163;28;20039;-66
2022/10/15 08:27:17;;;;;;;38.53;24.80;;;;;;;14.83;100.00;100587.34;5045210;28;20025;-64
2022/10/15 08:29:43;;;;;;;32.10;22.10;;;;;;;14.85;100.00;100585.47;5044043;28;20073;-64
2022/10/15 08:32:08;;;;;;;32.80;23.00;;;;;;;14.95;100.00;100575.16;5044495;28;20032;-63
2022/10/15 08:34:33;;;;;;;30.02;21.83;;;;;;;15.05;100.00;100580.81;5045876;28;20518;-66
2022/10/15 08:36:59;;;;;;;31.73;21.33;;;;;;;15.32;100.00;100570.41;5024753;28;20061;-64
2022/10/15 08:39:24;;;;;;;26.58;19.52;;;;;;;15.57;100.00;100566.31;5026049;28;20021;-65
2022/10/15 08:41:56;;;;;;;25.48;18.67;;;;;;;15.54;100.00;100555.88;5042598;28;20039;-65
2022/10/15 08:44:30;;;;;;;24.60;18.95;;;;;;;15.60;100.00;100567.94;5047304;28;20050;-67
2022/10/15 08:47:06;;;;;;;24.95;18.90;;;;;;;15.76;100.00;100559.88;5064710;28;20085;-65
2022/10/15 08:49:42;;;;;;;25.13;18.00;;;;;;;15.86;100.00;100561.03;5029545;28;20068;-66
2022/10/15 08:52:23;;;;;;;23.65;16.67;;;;;;;15.91;100.00;100564.28;5027819;28;20546;-68
2022/10/15 08:54:49;;;;;;;24.90;17.30;;;;;;;15.92;100.00;100565.97;5027938;28;20067;-66
2022/10/15 08:57:20;;;;;;;23.45;17.02;;;;;;;15.81;100.00;100565.78;5046087;28;20029;-65
2022/10/15 08:59:53;;;;;;;24.65;16.35;;;;;;;15.82;100.00;100564.84;5045457;28;20403;-65
2022/10/15 09:02:25;;;;;;;21.92;16.30;;;;;;;15.99;100.00;100574.47;5014285;28;20028;-66
2022/10/15 09:04:57;;;;;;;20.85;15.32;;;;;;;16.13;100.00;100572.75;5051395;28;20025;-66
2022/10/15 09:07:42;;;;;;;19.13;14.18;;;;;;;16.31;100.00;100570.75;5045274;28;20060;-65
2022/10/15 09:10:37;;;;;;;24.10;13.95;;;;;;;16.05;100.00;100575.91;5009296;28;20100;-65
2022/10/15 09:13:27;;;;;;;17.00;12.90;;;;;;;15.75;100.00;100587.41;5005391;28;20050;-67
2022/10/15 09:16:04;;;;;;;19.63;14.30;;;;;;;15.60;100.00;100573.25;5012916;28;20037;-65
2022/10/15 09:18:31;;;;;;;17.05;13.95;;;;;;;15.36;100.00;100552.50;5027444;28;20022;-65
2022/10/15 09:20:57;;;;;;;19.08;13.90;;;;;;;15.29;100.00;100552.84;5026347;28;20021;-64
2022/10/15 09:23:26;;;;;;;19.10;13.50;;;;;;;15.35;100.00;100548.16;5018902;28;20080;-64
2022/10/15 09:26:17;;;;;;;19.13;14.43;;;;;;;15.28;100.00;100540.53;5006227;28;20018;-64
2022/10/15 09:29:06;;;;;;;22.77;14.48;;;;;;;15.29;100.00;100563.47;5006439;28;20048;-64
2022/10/15 09:31:54;;;;;;;19.30;13.65;;;;;;;15.10;100.00;100561.03;5011685;28;20459;-65
2022/10/15 09:34:28;;;;;;;19.95;15.63;;;;;;;14.98;100.00;100559.94;5021019;28;20029;-68
2022/10/15 09:36:57;;;;;;;20.00;14.25;;;;;;;15.17;100.00;100550.91;5025099;28;20517;-65
2022/10/15 09:39:39;;;;;;;21.48;14.43;;;;;;;15.24;100.00;100539.03;5014637;28;20038;-64
2022/10/15 09:42:16;;;;;;;18.25;14.50;;;;;;;15.46;100.00;100540.41;5018432;28;20558;-65
2022/10/15 09:44:43;;;;;;;22.00;15.10;;;;;;;15.62;100.00;100536.84;5008431;28;20029;-64
2022/10/15 09:47:28;;;;;;;18.27;14.43;;;;;;;15.59;100.00;100540.50;5012852;28;20116;-65
2022/10/15 09:49:53;;;;;;;26.70;14.85;;;;;;;15.54;100.00;100534.63;5022637;28;20034;-64
2022/10/15 09:52:41;;;;;;;19.27;14.05;;;;;;;15.62;100.00;100535.03;5028850;28;20030;-64
2022/10/15 09:55:17;;;;;;;21.10;14.45;;;;;;;15.54;100.00;100534.63;5028606;28;20033;-65
2022/10/15 09:57:46;;;;;;;17.75;13.90;;;;;;;15.55;100.00;100536.34;5028549;28;20395;-64
2022/10/15 10:00:12;;;;;;;18.42;13.90;;;;;;;15.54;100.00;100526.66;5024835;28;20695;-64
2022/10/15 10:02:38;;;;;;;17.38;13.93;;;;;;;15.52;100.00;100533.84;5027683;28;20108;-64
2022/10/15 10:05:30;;;;;;;16.25;12.90;;;;;;;15.65;100.00;100529.53;5026432;28;20372;-65
2022/10/15 10:08:24;;;;;;;17.65;12.88;;;;;;;15.69;100.00;100526.69;5023038;28;20534;-64
2022/10/15 10:11:02;;;;;;;16.75;12.23;;;;;;;15.47;100.00;100535.94;5046886;28;20048;-64
2022/10/15 10:13:45;;;;;;;16.65;12.63;;;;;;;15.39;100.00;100531.94;5059310;28;20029;-64
2022/10/15 10:16:12;;;;;;;15.07;11.13;;;;;;;15.32;100.00;100530.59;5039139;28;20048;-66
2022/10/15 10:18:38;;;;;;;17.88;11.43;;;;;;;15.36;100.00;100534.78;5046172;28;20025;-67
2022/10/15 10:21:08;;;;;;;12.75;10.65;;;;;;;15.39;100.00;100531.09;5042146;28;20561;-65
2022/10/15 10:23:38;;;;;;;14.23;10.23;;;;;;;15.36;100.00;100529.47;5059751;28;20032;-68
2022/10/15 10:26:05;;;;;;;17.35;10.98;;;;;;;15.35;100.00;100530.41;5046332;28;20036;-68
2022/10/15 10:28:36;;;;;;;13.95;10.32;;;;;;;15.32;100.00;100527.94;5047202;28;20670;-66
2022/10/15 10:31:05;;;;;;;12.20;9.75;;;;;;;15.22;100.00;100529.41;5031310;28;20687;-67
2022/10/15 10:33:34;;;;;;;13.63;9.20;;;;;;;15.22;100.00;100532.94;5032072;28;20104;-67
2022/10/15 10:36:00;;;;;;;15.00;9.60;;;;;;;15.19;100.00;100534.91;5049793;28;20025;-67
2022/10/15 10:38:32;;;;;;;14.05;9.57;;;;;;;15.23;100.00;100531.16;5031464;28;20403;-69
2022/10/15 10:41:05;;;;;;;11.35;8.73;;;;;;;15.18;100.00;100538.50;5054625;28;20052;-68
2022/10/15 10:43:32;;;;;;;11.68;8.40;;;;;;;15.16;100.00;100528.84;5050319;28;20040;-71
2022/10/15 10:46:13;;;;;;;11.65;8.73;;;;;;;15.34;100.00;100525.19;5065036;28;20024;-66
2022/10/15 10:48:46;;;;;;;11.95;7.90;;;;;;;15.36;100.00;100515.34;5048070;28;20495;-68
2022/10/15 10:51:23;;;;;;;11.38;7.65;;;;;;;15.51;100.00;100518.88;5048982;28;20036;-67
2022/10/15 10:53:57;;;;;;;10.05;7.88;;;;;;;15.51;100.00;100511.75;5048522;28;20056;-67
2022/10/15 10:56:38;;;;;;;9.95;7.47;;;;;;;15.64;100.00;100517.19;5048254;28;20033;-69
2022/10/15 10:59:21;;;;;;;9.18;7.30;;;;;;;15.62;100.00;100513.78;5048534;28;20483;-65
2022/10/15 11:01:46;;;;;;;8.52;7.63;;;;;;;15.56;100.00;100514.13;5031359;28;20032;-66
2022/10/15 11:04:16;;;;;;;9.63;7.53;;;;;;;15.58;100.00;100514.91;5049438;28;20046;-66
2022/10/15 11:06:44;;;;;;;7.95;6.40;;;;;;;15.59;100.00;100511.28;5036567;28;20021;-69